Time;durP1;ratioP1;P1;durP2;ratioP2;P2;SDS_P1;SDS_P2;PMS_P1;PMS_P2;Temp;Humidity;BMP_temperature;BMP_pressure;BME280_temperature;BME280_humidity;BME280_pressure;Samples;Min_cycle;Max_cycle;Signal;HPM_P1;HPM_P2
2021/11/17 02:25:48;;;;;;;;;;;;;;;4.53;89.51;96831.53;5073156;28;20337;-73
2021/11/17 02:28:20;;;;;;;;;;;;;;;4.57;89.37;96827.63;5076121;28;20322;-73
2021/11/17 02:30:52;;;;;;;;;;;;;;;4.59;89.36;96833.47;5076640;28;19960;-75
2021/11/17 02:33:30;;;;;;;;;;;;;;;4.62;89.13;96833.94;5061131;28;20414;-73
2021/11/17 02:36:12;;;;;;;;;;;;;;;4.64;89.13;96829.38;5076720;28;19951;-73
2021/11/17 02:38:46;;;;;;;;;;;;;;;4.65;88.95;96825.78;5065815;28;20443;-73
2021/11/17 02:41:30;;;;;;;;;;;;;;;4.66;88.86;96827.44;5076454;28;19958;-73
2021/11/17 02:44:13;;;;;;;;;;;;;;;4.67;88.79;96826.44;5076500;28;19956;-73
2021/11/17 02:46:38;;;;;;;;;;;;;;;4.63;88.39;96827.75;5076216;28;19953;-73
2021/11/17 02:49:39;;;;;;;;;;;;;;;4.59;88.61;96823.06;5076812;28;19959;-73
2021/11/17 02:52:06;;;;;;;;;;;;;;;4.59;88.63;96831.66;5064043;28;19958;-73
2021/11/17 02:54:45;;;;;;;;;;;;;;;4.58;88.87;96832.66;5076381;28;19975;-72
2021/11/17 02:57:36;;;;;;;;;;;;;;;4.60;89.31;96829.88;5076784;28;19961;-72
2021/11/17 03:00:14;;;;;;;;;;;;;;;4.61;89.40;96834.91;5076165;28;20324;-73
2021/11/17 03:02:53;;;;;;;;;;;;;;;4.62;88.60;96833.09;5076069;28;19967;-73
2021/11/17 03:05:31;;;;;;;;;;;;;;;4.62;88.99;96833.09;5075801;28;19982;-73
2021/11/17 03:08:09;;;;;;;;;;;;;;;4.60;88.02;96829.88;5076057;28;19944;-72
2021/11/17 03:10:55;;;;;;;;;;;;;;;4.59;88.14;96828.25;5075749;28;19951;-72
2021/11/17 03:13:49;;;;;;;;;;;;;;;4.61;88.15;96834.09;5076244;28;19961;-75
2021/11/17 03:16:26;;;;;;;;;;;;;;;4.62;88.35;96833.94;5066027;28;20289;-73
2021/11/17 03:18:58;;;;;;;;;;;;;;;4.64;88.64;96833.75;5075644;28;19952;-73
2021/11/17 03:21:47;;;;;;;;;;;;;;;4.63;88.80;96827.75;5075910;28;19972;-73
2021/11/17 03:24:27;;;;;;;;;;;;;;;4.63;88.80;96825.16;5067372;28;20025;-74
2021/11/17 03:27:13;;;;;;;;;;;;;;;4.64;88.30;96831.97;5075566;28;20492;-73
2021/11/17 03:29:41;;;;;;;;;;;;;;;4.63;87.49;96839.94;5063869;28;19959;-73
2021/11/17 03:32:31;;;;;;;;;;;;;;;4.62;87.58;96839.13;5075609;28;19959;-74
2021/11/17 03:35:06;;;;;;;;;;;;;;;4.64;87.43;96838.94;5075319;28;19955;-74
2021/11/17 03:37:32;;;;;;;;;;;;;;;4.62;87.33;96833.94;5075708;28;19948;-73
2021/11/17 03:40:24;;;;;;;;;;;;;;;4.63;87.18;96834.75;5074530;28;19959;-73
2021/11/17 03:42:52;;;;;;;;;;;;;;;4.63;87.82;96832.94;5075492;28;19963;-74
2021/11/17 03:45:24;;;;;;;;;;;;;;;4.64;87.46;96828.56;5075154;28;19956;-73
2021/11/17 03:48:01;;;;;;;;;;;;;;;4.64;87.52;96833.75;5075478;28;19973;-73
2021/11/17 03:50:34;;;;;;;;;;;;;;;4.64;87.59;96831.97;5075415;28;19954;-73
2021/11/17 03:53:07;;;;;;;;;;;;;;;4.60;86.97;96833.28;5075483;28;19961;-73
2021/11/17 03:56:30;;;;;;;;;;;;;;;4.51;86.36;96830.91;5066676;28;20439;-73
2021/11/17 03:58:59;;;;;;;;;;;;;;;4.43;87.08;96839.53;5082147;28;19955;-73
2021/11/17 04:01:48;;;;;;;;;;;;;;;4.40;87.51;96843.28;5093240;28;20359;-73
2021/11/17 04:04:14;;;;;;;;;;;;;;;4.42;87.75;96846.50;5081463;28;19961;-73
2021/11/17 04:06:48;;;;;;;;;;;;;;;4.42;87.67;96836.13;5074792;28;20369;-73
2021/11/17 04:09:25;;;;;;;;;;;;;;;4.44;87.88;96835.97;5075174;28;19960;-73
2021/11/17 04:12:04;;;;;;;;;;;;;;;4.47;88.23;96836.44;5075004;28;19959;-73
2021/11/17 04:14:30;;;;;;;;;;;;;;;4.50;87.81;96840.50;5075108;28;19949;-73
2021/11/17 04:17:14;;;;;;;;;;;;;;;4.53;87.87;96836.72;5075065;28;19951;-73
2021/11/17 04:20:00;;;;;;;;;;;;;;;4.54;87.68;96836.56;5074332;28;19952;-73
2021/11/17 04:22:55;;;;;;;;;;;;;;;4.53;87.38;96831.53;5074666;28;20430;-74
2021/11/17 04:25:37;;;;;;;;;;;;;;;4.52;87.58;96825.53;5071665;28;19955;-73
2021/11/17 04:28:06;;;;;;;;;;;;;;;4.55;88.00;96832.19;5074983;28;19955;-73
2021/11/17 04:30:56;;;;;;;;;;;;;;;4.56;88.22;96832.03;5074417;28;19951;-73
2021/11/17 04:33:44;;;;;;;;;;;;;;;4.54;86.70;96822.78;5074431;28;19960;-72
2021/11/17 04:36:13;;;;;;;;;;;;;;;4.54;86.99;96830.56;5074233;28;20417;-73
2021/11/17 04:39:11;;;;;;;;;;;;;;;4.53;87.11;96829.75;5074177;28;19958;-75
2021/11/17 04:41:40;;;;;;;;;;;;;;;4.56;87.38;96832.03;5062656;28;19979;-73
2021/11/17 04:44:08;;;;;;;;;;;;;;;4.56;87.34;96834.63;5074206;28;19943;-73
2021/11/17 04:46:47;;;;;;;;;;;;;;;4.56;86.72;96845.00;5074421;28;19954;-73
2021/11/17 04:49:18;;;;;;;;;;;;;;;4.56;87.18;96845.00;5073946;28;19956;-73
2021/11/17 04:51:48;;;;;;;;;;;;;;;4.55;87.63;96839.97;5074084;28;19959;-74
2021/11/17 04:54:27;;;;;;;;;;;;;;;4.52;87.79;96835.94;5073682;28;19981;-74
2021/11/17 04:56:59;;;;;;;;;;;;;;;4.51;87.57;96836.09;5074233;28;19965;-73
2021/11/17 05:00:03;;;;;;;;;;;;;;;4.47;86.88;96836.44;5072912;28;20357;-74
2021/11/17 05:02:39;;;;;;;;;;;;;;;4.45;87.63;96832.38;5037631;28;19970;-74
2021/11/17 05:05:08;;;;;;;;;;;;;;;4.46;87.54;96841.81;5074012;28;20425;-73
2021/11/17 05:07:57;;;;;;;;;;;;;;;4.45;87.72;96846.19;5074038;28;19945;-73
2021/11/17 05:10:46;;;;;;;;;;;;;;;4.47;87.55;96846.84;5064594;28;19959;-74
2021/11/17 05:13:20;;;;;;;;;;;;;;;4.50;88.11;96845.69;5070829;28;19958;-74
2021/11/17 05:15:55;;;;;;;;;;;;;;;4.52;87.69;96843.72;5072654;28;19955;-73
2021/11/17 05:18:45;;;;;;;;;;;;;;;4.53;87.47;96847.94;5073715;28;20421;-73
2021/11/17 05:21:17;;;;;;;;;;;;;;;4.48;87.11;96851.03;5073840;28;19953;-73
2021/11/17 05:23:49;;;;;;;;;;;;;;;4.46;87.15;96852.19;5073419;28;19967;-74
2021/11/17 05:26:36;;;;;;;;;;;;;;;4.45;87.79;96853.16;5073552;28;19952;-74
2021/11/17 05:29:17;;;;;;;;;;;;;;;4.45;87.45;96853.16;5073451;28;19962;-74
2021/11/17 05:32:07;;;;;;;;;;;;;;;4.42;87.79;96863.91;5073633;28;19952;-73
2021/11/17 05:34:43;;;;;;;;;;;;;;;4.42;87.64;96856.91;5073306;28;19960;-73
2021/11/17 05:37:16;;;;;;;;;;;;;;;4.45;88.15;96860.94;5073443;28;19960;-73
2021/11/17 05:39:42;;;;;;;;;;;;;;;4.46;88.15;96862.56;5073223;28;20400;-74
2021/11/17 05:42:27;;;;;;;;;;;;;;;4.50;88.07;96863.88;5073499;28;20021;-73
2021/11/17 05:45:15;;;;;;;;;;;;;;;4.62;94.95;96853.88;5073368;28;20443;-73
2021/11/17 05:47:40;;;;;;;;;;;;;;;4.66;89.35;96866.38;5073459;28;19962;-73
2021/11/17 05:50:15;;;;;;;;;;;;;;;4.67;88.32;96867.19;5073404;28;19965;-73
2021/11/17 05:52:44;;;;;;;;;;;;;;;4.63;87.41;96869.31;5073948;28;19974;-73
2021/11/17 05:55:22;;;;;;;;;;;;;;;4.60;87.73;96861.88;5073303;28;19973;-73
2021/11/17 05:57:49;;;;;;;;;;;;;;;4.60;87.69;96871.44;5062261;28;19988;-73
2021/11/17 06:00:15;;;;;;;;;;;;;;;4.56;87.61;96875.38;5073148;28;19964;-73
2021/11/17 06:03:09;;;;;;;;;;;;;;;4.55;87.67;96874.53;5075336;28;19967;-73
2021/11/17 06:05:34;;;;;;;;;;;;;;;4.55;87.80;96889.31;5093018;28;19963;-73
2021/11/17 06:08:05;;;;;;;;;;;;;;;4.55;87.76;96895.31;5077332;28;19947;-73
2021/11/17 06:10:37;;;;;;;;;;;;;;;4.54;87.33;96891.13;5061713;28;19959;-73
2021/11/17 06:13:22;;;;;;;;;;;;;;;4.53;87.41;96892.06;5077718;28;19952;-73
2021/11/17 06:16:00;;;;;;;;;;;;;;;4.54;87.02;96890.31;5076906;28;19955;-74
2021/11/17 06:18:32;;;;;;;;;;;;;;;4.55;87.29;96889.31;5076021;28;20007;-73
2021/11/17 06:21:02;;;;;;;;;;;;;;;4.54;86.90;96888.53;5076879;28;19954;-73
2021/11/17 06:23:31;;;;;;;;;;;;;;;4.55;87.01;96892.72;5076843;28;19965;-73
2021/11/17 06:26:11;;;;;;;;;;;;;;;4.56;87.33;96894.34;5076940;28;20294;-73
2021/11/17 06:29:00;;;;;;;;;;;;;;;4.56;87.23;96896.16;5077107;28;19947;-73
2021/11/17 06:31:27;;;;;;;;;;;;;;;4.53;87.09;96899.06;5076775;28;20320;-74
2021/11/17 06:33:53;;;;;;;;;;;;;;;4.52;87.24;96903.47;5077013;28;19948;-73
2021/11/17 06:36:19;;;;;;;;;;;;;;;4.51;87.17;96906.22;5077023;28;19964;-73
2021/11/17 06:38:45;;;;;;;;;;;;;;;4.50;86.96;96905.41;5076290;28;19959;-73
2021/11/17 06:41:12;;;;;;;;;;;;;;;4.50;87.14;96908.00;5076455;28;19959;-73
2021/11/17 06:43:38;;;;;;;;;;;;;;;4.52;87.13;96908.66;5076407;28;20483;-74
2021/11/17 06:46:07;;;;;;;;;;;;;;;4.52;86.65;96913.03;5076517;28;19962;-73
2021/11/17 06:48:42;;;;;;;;;;;;;;;4.51;86.82;96914.00;5076380;28;19952;-73
2021/11/17 06:51:11;;;;;;;;;;;;;;;4.50;86.68;96921.00;5076436;28;19954;-73
2021/11/17 06:53:38;;;;;;;;;;;;;;;4.50;86.36;96925.38;5076477;28;19960;-74
2021/11/17 06:56:10;;;;;;;;;;;;;;;4.48;86.76;96926.34;5076493;28;19966;-73
2021/11/17 06:58:37;;;;;;;;;;;;;;;4.51;86.69;96927.78;5076230;28;20416;-73
2021/11/17 07:01:03;;;;;;;;;;;;;;;4.53;86.55;96928.44;5076069;28;19960;-73
2021/11/17 07:03:35;;;;;;;;;;;;;;;4.54;86.38;96927.47;5075260;28;19969;-73
2021/11/17 07:06:01;;;;;;;;;;;;;;;4.55;86.11;96929.09;5075841;28;20049;-74
2021/11/17 07:08:33;;;;;;;;;;;;;;;4.53;86.05;96938.84;5076073;28;19959;-73
2021/11/17 07:10:59;;;;;;;;;;;;;;;4.50;85.87;96939.19;5075825;28;19944;-73
2021/11/17 07:13:32;;;;;;;;;;;;;;;4.45;86.15;96937.09;5075947;28;19953;-74
2021/11/17 07:16:01;;;;;;;;;;;;;;;4.46;86.55;96950.88;5075775;28;20413;-74
2021/11/17 07:18:34;;;;;;;;;;;;;;;4.46;86.61;96958.66;5075889;28;19947;-74
2021/11/17 07:21:06;;;;;;;;;;;;;;;4.46;86.78;96962.06;5075810;28;19964;-73
2021/11/17 07:23:35;;;;;;;;;;;;;;;4.46;86.54;96963.84;5075548;28;19971;-73
2021/11/17 07:26:01;;;;;;;;;;;;;;;4.44;86.11;96960.63;5075792;28;19954;-73
2021/11/17 07:28:30;;;;;;;;;;;;;;;4.43;86.16;96952.03;5075947;28;19975;-73
2021/11/17 07:30:57;;;;;;;;;;;;;;;4.47;86.27;96968.06;5074374;28;19953;-74
2021/11/17 07:33:28;;;;;;;;;;;;;;;4.50;86.77;96966.94;5076270;28;19962;-73
2021/11/17 07:36:12;;;;;;;;;;;;;;;4.51;86.07;96969.34;5075550;28;20394;-73
2021/11/17 07:38:38;;;;;;;;;;;;;;;4.50;85.98;96972.13;5075248;28;19948;-74
2021/11/17 07:41:04;;;;;;;;;;;;;;;4.51;86.35;96979.75;5074334;28;20007;-73
2021/11/17 07:43:30;;;;;;;;;;;;;;;4.51;86.79;96978.94;5075602;28;20450;-73
2021/11/17 07:45:59;;;;;;;;;;;;;;;4.50;86.77;96980.75;5075520;28;19973;-74
2021/11/17 07:48:28;;;;;;;;;;;;;;;4.51;86.80;96982.34;5075357;28;19959;-73
2021/11/17 07:51:13;;;;;;;;;;;;;;;4.53;86.97;96987.38;5075161;28;19953;-73
2021/11/17 07:53:44;;;;;;;;;;;;;;;4.54;87.04;96989.81;5074956;28;19954;-75
2021/11/17 07:56:28;;;;;;;;;;;;;;;4.55;86.83;96994.03;5075131;28;19962;-73
2021/11/17 07:59:06;;;;;;;;;;;;;;;4.57;86.95;96997.25;5075192;28;19962;-74
2021/11/17 08:01:36;;;;;;;;;;;;;;;4.59;86.48;96997.09;5075258;28;19959;-73
2021/11/17 08:04:14;;;;;;;;;;;;;;;4.61;86.36;97000.34;5075391;28;19981;-73
2021/11/17 08:06:40;;;;;;;;;;;;;;;4.59;86.37;97000.50;5074763;28;19953;-72
2021/11/17 08:09:10;;;;;;;;;;;;;;;4.58;86.29;96998.91;5074807;28;19958;-73
2021/11/17 08:11:36;;;;;;;;;;;;;;;4.57;86.08;97002.47;5074665;28;20019;-74
2021/11/17 08:14:09;;;;;;;;;;;;;;;4.57;86.23;97006.84;5075102;28;19983;-73
2021/11/17 08:16:35;;;;;;;;;;;;;;;4.58;85.89;97009.28;5074916;28;19958;-73
2021/11/17 08:19:04;;;;;;;;;;;;;;;4.58;86.09;97016.28;5074802;28;19953;-73
2021/11/17 08:21:31;;;;;;;;;;;;;;;4.61;85.84;97023.72;5074822;28;20306;-73
2021/11/17 08:23:57;;;;;;;;;;;;;;;4.62;85.89;97025.34;5074683;28;20005;-73
2021/11/17 08:26:29;;;;;;;;;;;;;;;4.61;86.70;97021.13;5074264;28;20320;-73
2021/11/17 08:29:01;;;;;;;;;;;;;;;4.63;86.51;97027.78;5073938;28;19955;-73
2021/11/17 08:31:45;;;;;;;;;;;;;;;4.66;85.99;97026.63;5074717;28;19968;-74
2021/11/17 08:34:13;;;;;;;;;;;;;;;4.69;85.36;97018.50;5074345;28;19965;-73
2021/11/17 08:36:40;;;;;;;;;;;;;;;4.71;84.38;97019.16;5074298;28;19958;-74
2021/11/17 08:39:08;;;;;;;;;;;;;;;4.71;84.46;97026.16;5074336;28;19957;-73
2021/11/17 08:41:49;;;;;;;;;;;;;;;4.70;84.14;97025.31;5074221;28;20438;-73
2021/11/17 08:44:33;;;;;;;;;;;;;;;4.73;84.21;97026.78;5074074;28;19967;-74
2021/11/17 08:47:05;;;;;;;;;;;;;;;4.75;83.88;97033.44;5074417;28;19966;-74
2021/11/17 08:49:43;;;;;;;;;;;;;;;4.73;84.39;97032.00;5074261;28;19953;-73
2021/11/17 08:52:09;;;;;;;;;;;;;;;4.72;83.58;97027.75;5074121;28;19963;-73
2021/11/17 08:54:41;;;;;;;;;;;;;;;4.68;82.86;97032.47;5074521;28;19982;-73
2021/11/17 08:57:07;;;;;;;;;;;;;;;4.63;83.23;97027.78;5074044;28;19959;-74
2021/11/17 08:59:33;;;;;;;;;;;;;;;4.60;83.37;97027.28;5073971;28;19956;-74
2021/11/17 09:02:03;;;;;;;;;;;;;;;4.61;84.50;97024.53;5072627;28;20435;-73
2021/11/17 09:04:34;;;;;;;;;;;;;;;4.64;84.74;97026.81;5072905;28;19977;-75
2021/11/17 09:07:00;;;;;;;;;;;;;;;4.70;83.76;97033.13;5074021;28;19970;-73
2021/11/17 09:09:30;;;;;;;;;;;;;;;4.69;83.07;97031.50;5073820;28;20403;-73
2021/11/17 09:11:57;;;;;;;;;;;;;;;4.67;83.12;97041.25;5073741;28;19959;-73
2021/11/17 09:14:24;;;;;;;;;;;;;;;4.66;83.36;97042.22;5073530;28;19981;-74
2021/11/17 09:16:50;;;;;;;;;;;;;;;4.62;83.30;97046.94;5073906;28;20442;-74
2021/11/17 09:19:20;;;;;;;;;;;;;;;4.62;84.00;97052.16;5073539;28;19956;-73
2021/11/17 09:22:01;;;;;;;;;;;;;;;4.61;83.30;97041.91;5073839;28;19951;-74
2021/11/17 09:24:27;;;;;;;;;;;;;;;4.64;84.04;97052.78;5073674;28;19969;-74
2021/11/17 09:27:11;;;;;;;;;;;;;;;4.72;84.47;97051.16;5073598;28;19963;-74
2021/11/17 09:29:42;;;;;;;;;;;;;;;4.77;84.64;97061.88;5075316;28;19975;-73
2021/11/17 09:32:14;;;;;;;;;;;;;;;4.80;84.84;97069.31;5073492;28;20432;-73
2021/11/17 09:34:44;;;;;;;;;;;;;;;4.79;84.61;97072.91;5073546;28;19950;-73
2021/11/17 09:37:15;;;;;;;;;;;;;;;4.76;84.48;97073.22;5072571;28;19966;-73
2021/11/17 09:39:42;;;;;;;;;;;;;;;4.74;84.83;97081.16;5073339;28;20392;-73
2021/11/17 09:42:10;;;;;;;;;;;;;;;4.71;85.13;97078.13;5073556;28;19950;-73
2021/11/17 09:44:42;;;;;;;;;;;;;;;4.70;85.64;97084.28;5073518;28;19970;-74
2021/11/17 09:47:17;;;;;;;;;;;;;;;4.71;85.59;97076.31;5073453;28;20401;-73
2021/11/17 09:49:44;;;;;;;;;;;;;;;4.75;85.76;97079.41;5073325;28;19979;-75
2021/11/17 09:52:19;;;;;;;;;;;;;;;4.77;85.61;97075.66;5073896;28;19964;-73
2021/11/17 09:54:48;;;;;;;;;;;;;;;4.78;85.85;97077.28;5073158;28;20342;-73
2021/11/17 09:57:19;;;;;;;;;;;;;;;4.79;84.88;97085.91;5073105;28;19960;-73
2021/11/17 09:59:50;;;;;;;;;;;;;;;4.79;85.47;97091.91;5072217;28;19958;-74
2021/11/17 10:02:20;;;;;;;;;;;;;;;4.82;85.67;97090.75;5073299;28;19957;-73
2021/11/17 10:04:50;;;;;;;;;;;;;;;4.85;85.32;97090.41;5073027;28;19984;-73
2021/11/17 10:13:17;;;;;;;;;;;;;;;4.95;85.06;97087.63;5064346;28;20327;-73
2021/11/17 10:15:53;;;;;;;;;;;;;;;4.94;85.34;97094.63;5073346;28;19947;-74
2021/11/17 10:18:32;;;;;;;;;;;;;;;4.94;84.19;97091.22;5073499;28;19960;-73
2021/11/17 10:21:05;;;;;;;;;;;;;;;4.89;84.56;97099.50;5072979;28;19952;-74
2021/11/17 10:23:49;;;;;;;;;;;;;;;4.82;84.88;97098.53;5072937;28;19974;-73
2021/11/17 10:26:17;;;;;;;;;;;;;;;4.82;85.48;97098.53;5073109;28;19964;-73
2021/11/17 10:28:58;;;;;;;;;;;;;;;4.80;83.65;97092.69;5072917;28;20062;-73
2021/11/17 10:31:47;;;;;;;;;;;;;;;4.78;83.96;97102.44;5072699;28;19957;-73
2021/11/17 10:34:19;;;;;;;;;;;;;;;4.77;83.82;97106.84;5073339;28;19956;-73
2021/11/17 10:36:50;;;;;;;;;;;;;;;4.80;84.38;97100.50;5073189;28;19958;-73
2021/11/17 10:39:16;;;;;;;;;;;;;;;4.81;83.89;97105.53;5072993;28;19958;-73
2021/11/17 10:41:59;;;;;;;;;;;;;;;4.85;83.23;97095.59;5059845;28;19961;-73
2021/11/17 10:44:34;;;;;;;;;;;;;;;4.88;84.02;97096.09;5072722;28;19975;-73
2021/11/17 10:47:00;;;;;;;;;;;;;;;4.92;81.11;97085.38;5072913;28;20024;-74
2021/11/17 10:49:28;;;;;;;;;;;;;;;4.96;82.31;97090.06;5076040;28;19954;-73
2021/11/17 10:51:56;;;;;;;;;;;;;;;5.05;81.62;97088.25;5076394;28;19948;-73
2021/11/17 10:54:29;;;;;;;;;;;;;;;5.16;81.95;97092.28;5076170;28;19978;-73
2021/11/17 10:57:04;;;;;;;;;;;;;;;5.23;80.80;97085.47;5075315;28;19963;-73
2021/11/17 10:59:31;;;;;;;;;;;;;;;5.26;80.83;97074.69;5076386;28;20438;-71
2021/11/17 11:01:58;;;;;;;;;;;;;;;5.29;80.89;97070.00;5076073;28;19956;-72
2021/11/17 11:04:41;;;;;;;;;;;;;;;5.32;80.54;97070.63;5075904;28;20364;-72
2021/11/17 11:07:25;;;;;;;;;;;;;;;5.31;80.11;97062.00;5076650;28;19962;-71
2021/11/17 11:10:09;;;;;;;;;;;;;;;5.25;80.16;97060.91;5076229;28;19949;-71
2021/11/17 11:12:38;;;;;;;;;;;;;;;5.20;80.26;97057.97;5076146;28;19950;-72
2021/11/17 11:15:24;;;;;;;;;;;;;;;5.16;80.01;97063.69;5076177;28;19962;-73
2021/11/17 11:18:05;;;;;;;;;;;;;;;5.15;80.78;97068.09;5076227;28;19956;-73
2021/11/17 11:20:45;;;;;;;;;;;;;;;5.16;80.79;97069.69;5075729;28;19950;-73
2021/11/17 11:23:29;;;;;;;;;;;;;;;5.17;79.68;97071.31;5074772;28;19963;-73
2021/11/17 11:26:04;;;;;;;;;;;;;;;5.15;80.36;97081.09;5075866;28;20415;-72
2021/11/17 11:28:49;;;;;;;;;;;;;;;5.17;80.75;97076.53;5076333;28;20025;-72
2021/11/17 11:31:24;;;;;;;;;;;;;;;5.16;80.10;97077.50;5075544;28;19955;-73
2021/11/17 11:33:56;;;;;;;;;;;;;;;5.15;79.69;97082.88;5075206;28;20342;-74
2021/11/17 11:36:21;;;;;;;;;;;;;;;5.15;80.68;97098.47;5075900;28;20417;-73
2021/11/17 11:39:05;;;;;;;;;;;;;;;5.13;80.84;97097.84;5075488;28;19952;-73
2021/11/17 11:42:04;;;;;;;;;;;;;;;5.13;80.37;97097.84;5075754;28;19952;-73
2021/11/17 11:44:35;;;;;;;;;;;;;;;5.16;80.64;97093.09;5075294;28;19978;-73
2021/11/17 11:47:04;;;;;;;;;;;;;;;5.19;79.25;97089.38;5075532;28;19962;-73
2021/11/17 11:49:32;;;;;;;;;;;;;;;5.18;79.88;97098.94;5075139;28;19954;-73
2021/11/17 11:52:07;;;;;;;;;;;;;;;5.16;79.00;97090.50;5075175;28;19966;-73
2021/11/17 11:55:06;;;;;;;;;;;;;;;5.15;79.11;97083.69;5075340;28;19992;-73
2021/11/17 11:57:44;;;;;;;;;;;;;;;5.16;79.95;97081.88;5075225;28;19952;-73
2021/11/17 12:00:14;;;;;;;;;;;;;;;5.18;80.05;97067.72;5074201;28;19958;-73
2021/11/17 12:02:44;;;;;;;;;;;;;;;5.19;79.10;97082.38;5075022;28;20416;-74
2021/11/17 12:05:19;;;;;;;;;;;;;;;5.20;79.73;97080.56;5074862;28;19970;-74
2021/11/17 12:07:53;;;;;;;;;;;;;;;5.18;77.69;97072.94;5075439;28;20328;-73
2021/11/17 12:10:32;;;;;;;;;;;;;;;5.17;78.89;97084.31;5074732;28;19952;-74
2021/11/17 12:13:13;;;;;;;;;;;;;;;5.15;79.03;97075.88;5074902;28;19950;-73
2021/11/17 12:15:56;;;;;;;;;;;;;;;5.16;79.71;97077.50;5074682;28;20345;-73
2021/11/17 12:18:28;;;;;;;;;;;;;;;5.18;79.17;97075.53;5074672;28;19974;-73
2021/11/17 12:21:00;;;;;;;;;;;;;;;5.14;78.54;97084.66;5074942;28;19952;-73
2021/11/17 12:23:26;;;;;;;;;;;;;;;5.13;79.73;97087.44;5074524;28;19968;-74
2021/11/17 12:25:55;;;;;;;;;;;;;;;5.14;79.76;97091.66;5074616;28;19952;-73
2021/11/17 12:28:27;;;;;;;;;;;;;;;5.11;77.98;97087.59;5074673;28;19945;-73
2021/11/17 12:30:58;;;;;;;;;;;;;;;5.07;78.61;97094.91;5074583;28;19957;-74
2021/11/17 12:33:44;;;;;;;;;;;;;;;5.06;79.27;97100.28;5074772;28;19966;-73
2021/11/17 12:36:19;;;;;;;;;;;;;;;5.07;78.76;97094.09;5066764;28;19959;-73
2021/11/17 12:38:46;;;;;;;;;;;;;;;5.08;79.36;97090.50;5074649;28;19960;-73
2021/11/17 12:41:34;;;;;;;;;;;;;;;5.06;79.36;97095.06;5074101;28;20396;-73
2021/11/17 12:44:04;;;;;;;;;;;;;;;5.06;78.60;97092.47;5074480;28;20073;-73
2021/11/17 12:46:41;;;;;;;;;;;;;;;5.01;79.75;97085.19;5074284;28;19951;-73
2021/11/17 12:49:21;;;;;;;;;;;;;;;5.03;79.49;97077.22;5074356;28;19956;-73
2021/11/17 12:51:52;;;;;;;;;;;;;;;5.06;79.75;97090.69;5074185;28;19965;-73
2021/11/17 12:54:36;;;;;;;;;;;;;;;5.14;79.69;97092.44;5063127;28;19971;-73
2021/11/17 12:57:15;;;;;;;;;;;;;;;5.15;79.04;97094.09;5073958;28;19960;-74
2021/11/17 12:59:43;;;;;;;;;;;;;;;5.14;78.07;97089.03;5074052;28;19965;-73
2021/11/17 13:02:26;;;;;;;;;;;;;;;5.09;77.52;97086.94;5073512;28;20256;-73
2021/11/17 13:05:28;;;;;;;;;;;;;;;5.08;78.64;97093.13;5062520;28;19982;-73
2021/11/17 13:08:00;;;;;;;;;;;;;;;5.11;78.49;97089.38;5073853;28;19960;-73
2021/11/17 13:10:28;;;;;;;;;;;;;;;5.07;77.68;97089.72;5073556;28;20418;-73
2021/11/17 13:13:03;;;;;;;;;;;;;;;5.08;78.13;97087.91;5074102;28;19953;-73
2021/11/17 13:15:44;;;;;;;;;;;;;;;5.09;78.76;97089.56;5059668;28;19993;-73
2021/11/17 13:18:25;;;;;;;;;;;;;;;5.12;78.63;97101.41;5073769;28;19952;-73
2021/11/17 13:20:52;;;;;;;;;;;;;;;5.10;77.93;97101.56;5074192;28;19956;-73
2021/11/17 13:23:25;;;;;;;;;;;;;;;5.09;78.46;97105.94;5073463;28;20316;-73
2021/11/17 13:26:09;;;;;;;;;;;;;;;5.08;78.69;97104.34;5073805;28;19953;-74
2021/11/17 13:28:55;;;;;;;;;;;;;;;5.13;79.36;97097.84;5073533;28;19954;-74
2021/11/17 13:31:26;;;;;;;;;;;;;;;5.13;78.67;97095.25;5073720;28;19957;-73
2021/11/17 13:33:54;;;;;;;;;;;;;;;5.13;79.35;97092.63;5073326;28;20420;-73
2021/11/17 13:36:34;;;;;;;;;;;;;;;5.15;79.03;97095.88;5073467;28;19970;-73
2021/11/17 13:39:04;;;;;;;;;;;;;;;5.14;79.19;97095.03;5074007;28;20432;-73
2021/11/17 13:41:33;;;;;;;;;;;;;;;5.14;78.88;97096.84;5073378;28;19962;-74
2021/11/17 13:44:01;;;;;;;;;;;;;;;5.12;79.18;97102.19;5073396;28;19982;-73
2021/11/17 13:46:30;;;;;;;;;;;;;;;5.11;79.50;97116.19;5073400;28;19987;-73
2021/11/17 13:49:12;;;;;;;;;;;;;;;5.11;79.79;97108.41;5073297;28;20412;-74
2021/11/17 13:51:38;;;;;;;;;;;;;;;5.13;80.32;97111.63;5061676;28;20011;-73
2021/11/17 13:54:05;;;;;;;;;;;;;;;5.13;79.73;97114.25;5072979;28;20003;-73
2021/11/17 13:56:37;;;;;;;;;;;;;;;5.13;79.53;97113.44;5072537;28;19954;-73
2021/11/17 13:59:03;;;;;;;;;;;;;;;5.12;79.87;97117.81;5072234;28;19960;-74
2021/11/17 14:01:30;;;;;;;;;;;;;;;5.12;79.52;97119.59;5073473;28;19949;-73
2021/11/17 14:03:56;;;;;;;;;;;;;;;5.08;79.39;97119.94;5071947;28;20015;-75
2021/11/17 14:06:41;;;;;;;;;;;;;;;5.07;79.77;97123.50;5073688;28;19962;-73
2021/11/17 14:09:28;;;;;;;;;;;;;;;5.17;80.75;97109.53;5073588;28;19953;-74
2021/11/17 14:11:56;;;;;;;;;;;;;;;5.19;79.83;97112.78;5065300;28;19949;-73
2021/11/17 14:14:22;;;;;;;;;;;;;;;5.15;79.17;97109.69;5073119;28;20021;-73
2021/11/17 14:16:48;;;;;;;;;;;;;;;5.13;79.48;97111.63;5073084;28;20056;-73
2021/11/17 14:19:17;;;;;;;;;;;;;;;5.11;78.97;97107.59;5072020;28;19955;-73
2021/11/17 14:21:46;;;;;;;;;;;;;;;5.11;79.78;97112.78;5073051;28;19953;-73
2021/11/17 14:24:12;;;;;;;;;;;;;;;5.12;78.94;97115.19;5075857;28;20035;-73
2021/11/17 14:26:40;;;;;;;;;;;;;;;5.12;78.90;97114.41;5076959;28;19958;-74
2021/11/17 14:29:21;;;;;;;;;;;;;;;5.09;78.41;97116.34;5076994;28;19949;-74
2021/11/17 14:31:49;;;;;;;;;;;;;;;5.27;83.28;97110.94;5077120;28;19952;-73
2021/11/17 14:34:18;;;;;;;;;;;;;;;5.41;80.82;97103.41;5076797;28;20399;-73
2021/11/17 14:36:52;;;;;;;;;;;;;;;5.44;78.62;97110.91;5076608;28;20396;-73
2021/11/17 14:39:38;;;;;;;;;;;;;;;5.45;78.44;97117.72;5077243;28;19955;-73
2021/11/17 14:42:08;;;;;;;;;;;;;;;5.43;79.73;97115.25;5076992;28;19953;-73
2021/11/17 14:44:50;;;;;;;;;;;;;;;5.51;79.54;97113.63;5067112;28;19988;-73
2021/11/17 14:47:16;;;;;;;;;;;;;;;5.53;77.54;97122.06;5076370;28;19953;-74
2021/11/17 14:49:44;;;;;;;;;;;;;;;5.43;77.52;97117.06;5076502;28;19962;-73
2021/11/17 14:52:15;;;;;;;;;;;;;;;5.40;78.42;97120.81;5076357;28;19942;-73
2021/11/17 14:54:42;;;;;;;;;;;;;;;5.35;77.45;97120.50;5076051;28;19979;-73
2021/11/17 14:57:11;;;;;;;;;;;;;;;5.33;77.96;97122.44;5076381;28;19967;-72
2021/11/17 14:59:57;;;;;;;;;;;;;;;5.31;78.21;97127.00;5076616;28;19964;-74
2021/11/17 15:02:26;;;;;;;;;;;;;;;5.28;77.09;97122.16;5074894;28;20289;-73
2021/11/17 15:04:51;;;;;;;;;;;;;;;5.22;77.11;97136.63;5075927;28;19971;-73
2021/11/17 15:07:18;;;;;;;;;;;;;;;5.17;77.73;97138.94;5076467;28;20007;-73
2021/11/17 15:09:56;;;;;;;;;;;;;;;5.15;78.54;97132.28;5076157;28;19970;-73
2021/11/17 15:12:26;;;;;;;;;;;;;;;5.12;78.04;97133.41;5076041;28;19952;-73
2021/11/17 15:14:52;;;;;;;;;;;;;;;5.09;77.89;97141.53;5075821;28;19953;-73
2021/11/17 15:17:18;;;;;;;;;;;;;;;5.11;78.28;97150.00;5075905;28;19954;-73
2021/11/17 15:19:45;;;;;;;;;;;;;;;5.13;79.29;97152.44;5075749;28;19959;-73
2021/11/17 15:22:13;;;;;;;;;;;;;;;5.17;78.96;97143.31;5075592;28;19954;-74
2021/11/17 15:24:40;;;;;;;;;;;;;;;5.17;78.59;97157.13;5075725;28;19958;-73
2021/11/17 15:27:08;;;;;;;;;;;;;;;5.17;79.25;97154.53;5075716;28;19954;-74
2021/11/17 15:29:49;;;;;;;;;;;;;;;5.20;79.14;97155.97;5076001;28;19954;-73
2021/11/17 15:32:19;;;;;;;;;;;;;;;5.21;79.44;97162.81;5075524;28;20416;-73
2021/11/17 15:34:48;;;;;;;;;;;;;;;5.23;79.46;97158.25;5074868;28;19957;-73
2021/11/17 15:37:15;;;;;;;;;;;;;;;5.23;79.40;97164.28;5075793;28;19967;-73
2021/11/17 15:39:42;;;;;;;;;;;;;;;5.23;78.47;97153.06;5075433;28;19960;-73
2021/11/17 15:42:10;;;;;;;;;;;;;;;5.22;78.85;97156.63;5075953;28;20439;-73
2021/11/17 15:44:40;;;;;;;;;;;;;;;5.22;78.92;97161.84;5075248;28;19970;-73
2021/11/17 15:47:08;;;;;;;;;;;;;;;5.23;79.10;97166.06;5075267;28;20400;-74
2021/11/17 15:49:53;;;;;;;;;;;;;;;5.23;78.81;97159.06;5066909;28;19954;-73
2021/11/17 15:52:19;;;;;;;;;;;;;;;5.23;78.89;97166.06;5075033;28;19966;-73
2021/11/17 15:54:46;;;;;;;;;;;;;;;5.22;79.17;97164.44;5075046;28;19981;-73
2021/11/17 15:57:15;;;;;;;;;;;;;;;5.24;79.00;97165.06;5075069;28;20007;-73
2021/11/17 16:00:00;;;;;;;;;;;;;;;5.22;78.92;97167.03;5077692;28;19960;-73
2021/11/17 16:02:36;;;;;;;;;;;;;;;5.22;79.30;97175.63;5075300;28;20402;-73
2021/11/17 16:05:03;;;;;;;;;;;;;;;5.22;78.75;97177.44;5075237;28;19987;-73